createdAt,value
2024-03-07T00:00:37.890Z,5.84
2024-03-07T00:03:06.162Z,5.89
2024-03-07T00:05:34.055Z,5.79
2024-03-07T00:08:03.592Z,5.84
2024-03-07T00:10:33.016Z,5.81
2024-03-07T00:13:01.619Z,5.89
2024-03-07T00:15:31.214Z,5.84
2024-03-07T00:17:59.084Z,5.88
2024-03-07T00:20:26.935Z,5.81
2024-03-07T00:22:54.721Z,5.76
2024-03-07T00:25:23.420Z,5.81
2024-03-07T00:27:54.586Z,5.86
2024-03-07T00:30:22.227Z,5.87
2024-03-07T00:32:50.313Z,5.82
2024-03-07T00:35:18.483Z,5.76
2024-03-07T00:37:46.450Z,5.73
2024-03-07T00:40:13.385Z,5.82
2024-03-07T00:42:41.113Z,5.78
2024-03-07T00:45:10.529Z,5.90
2024-03-07T00:47:39.415Z,5.70
2024-03-07T00:50:10.539Z,5.68
2024-03-07T00:52:38.727Z,5.67
2024-03-07T00:55:09.810Z,5.58
2024-03-07T00:57:37.918Z,5.62
2024-03-07T01:00:06.680Z,5.59
2024-03-07T01:02:36.190Z,5.45
2024-03-07T01:05:09.598Z,5.55
2024-03-07T01:07:38.265Z,5.46
2024-03-07T01:10:07.226Z,5.43
2024-03-07T01:12:36.153Z,5.43
2024-03-07T01:15:05.326Z,5.47
2024-03-07T01:17:34.124Z,5.18
2024-03-07T01:20:05.645Z,5.21
2024-03-07T01:22:33.475Z,5.29
2024-03-07T01:25:01.278Z,5.32
2024-03-07T01:27:29.091Z,5.14
2024-03-07T01:29:56.906Z,5.12
2024-03-07T01:32:27.756Z,5.22
2024-03-07T01:34:55.908Z,5.14
2024-03-07T01:37:25.120Z,5.02
2024-03-07T01:39:52.909Z,5.14
2024-03-07T01:42:20.864Z,5.09
2024-03-07T01:44:48.717Z,4.71
2024-03-07T01:47:17.259Z,4.86
2024-03-07T01:49:45.336Z,4.75
2024-03-07T01:52:18.208Z,4.68
2024-03-07T01:54:48.659Z,4.78
2024-03-07T01:57:17.884Z,4.70
2024-03-07T01:59:46.142Z,4.59
2024-03-07T02:02:14.187Z,4.70
2024-03-07T02:04:41.991Z,4.54
2024-03-07T02:07:12.389Z,4.37
2024-03-07T02:09:40.166Z,4.49
2024-03-07T02:12:10.789Z,4.30
2024-03-07T02:14:38.650Z,4.38
2024-03-07T02:17:06.525Z,4.32
2024-03-07T02:19:34.404Z,4.08
2024-03-07T02:22:03.497Z,4.08
2024-03-07T02:24:32.543Z,4.01
2024-03-07T02:27:00.632Z,4.14
2024-03-07T02:29:28.576Z,4.07
2024-03-07T02:31:56.717Z,4.09
2024-03-07T02:34:24.872Z,4.10
2024-03-07T02:36:55.650Z,3.98
2024-03-07T02:39:26.080Z,3.95
2024-03-07T02:41:55.991Z,3.98
2024-03-07T02:44:26.315Z,3.96
2024-03-07T02:46:55.602Z,3.78
2024-03-07T02:49:23.382Z,3.82
2024-03-07T02:51:51.171Z,3.51
2024-03-07T02:54:19.173Z,3.69
2024-03-07T02:56:48.462Z,3.58
2024-03-07T02:59:16.635Z,3.74
2024-03-07T03:01:44.641Z,3.61
2024-03-07T03:04:12.460Z,3.79
2024-03-07T03:06:40.205Z,3.84
2024-03-07T03:09:14.221Z,3.63
2024-03-07T03:11:42.049Z,3.56
2024-03-07T03:14:11.943Z,3.49
2024-03-07T03:16:48.191Z,3.60
2024-03-07T03:19:17.185Z,3.47
2024-03-07T03:21:45.019Z,3.53
2024-03-07T03:24:13.063Z,3.44
2024-03-07T03:26:43.334Z,3.35
2024-03-07T03:29:13.109Z,3.34
2024-03-07T03:31:40.955Z,3.28
2024-03-07T03:34:09.852Z,3.07
2024-03-07T03:36:37.726Z,3.25
2024-03-07T03:39:05.503Z,3.01
2024-03-07T03:41:33.309Z,2.85
2024-03-07T03:44:01.060Z,2.87
2024-03-07T03:46:30.184Z,2.99
2024-03-07T03:48:57.871Z,3.00
2024-03-07T03:51:26.287Z,2.91
2024-03-07T03:53:54.712Z,2.62
2024-03-07T03:56:22.790Z,2.91
2024-03-07T03:58:50.732Z,2.95
2024-03-07T04:01:18.446Z,2.87
2024-03-07T04:03:48.424Z,2.78
2024-03-07T04:06:16.410Z,2.79
2024-03-07T04:08:44.270Z,2.76
2024-03-07T04:11:12.120Z,2.75
2024-03-07T04:13:39.966Z,2.63
2024-03-07T04:16:08.054Z,2.51
2024-03-07T04:18:35.830Z,2.61
2024-03-07T04:21:05.120Z,2.74
2024-03-07T04:23:32.965Z,2.61
2024-03-07T04:26:00.956Z,2.64
2024-03-07T04:28:29.006Z,2.68
2024-03-07T04:30:56.654Z,2.65
2024-03-07T04:33:24.988Z,2.72
2024-03-07T04:35:55.099Z,2.65
2024-03-07T04:38:24.174Z,2.61
2024-03-07T04:40:51.826Z,2.57
2024-03-07T04:43:19.465Z,2.68
2024-03-07T04:45:47.528Z,2.71
2024-03-07T04:48:15.340Z,2.76
2024-03-07T04:50:43.405Z,2.57
2024-03-07T04:53:11.157Z,2.56
2024-03-07T04:55:40.218Z,2.59
2024-03-07T04:58:07.896Z,2.47
2024-03-07T05:00:35.642Z,2.50
2024-03-07T05:03:03.652Z,2.56
2024-03-07T05:05:31.419Z,2.49
2024-03-07T05:07:59.122Z,2.58
2024-03-07T05:10:28.282Z,2.45
2024-03-07T05:12:59.818Z,2.52
2024-03-07T05:15:27.699Z,2.48
2024-03-07T05:17:57.287Z,2.36
2024-03-07T05:20:25.462Z,2.48
2024-03-07T05:22:53.322Z,2.51
2024-03-07T05:25:21.213Z,2.42
2024-03-07T05:27:51.378Z,2.16
2024-03-07T05:30:20.617Z,2.09
2024-03-07T05:32:49.366Z,2.08
2024-03-07T05:35:19.835Z,1.98
2024-03-07T05:37:49.304Z,2.05
2024-03-07T05:40:17.040Z,2.12
2024-03-07T05:42:44.678Z,2.00
2024-03-07T05:45:12.387Z,1.91
2024-03-07T05:47:41.431Z,1.95
2024-03-07T05:50:10.116Z,1.89
2024-03-07T05:52:37.754Z,1.98
2024-03-07T05:55:07.687Z,2.13
2024-03-07T05:57:35.632Z,2.02
2024-03-07T06:00:10.525Z,1.94
2024-03-07T06:02:38.471Z,1.93
2024-03-07T06:05:13.719Z,1.75
2024-03-07T06:07:41.664Z,1.76
2024-03-07T06:10:12.238Z,1.92
2024-03-07T06:12:46.286Z,1.90
2024-03-07T06:15:16.723Z,1.97
2024-03-07T06:17:47.491Z,2.03
2024-03-07T06:20:24.244Z,1.92
2024-03-07T06:22:53.247Z,1.77
2024-03-07T06:25:24.135Z,1.90
2024-03-07T06:27:53.185Z,1.94
2024-03-07T06:30:20.869Z,1.97
2024-03-07T06:32:48.667Z,1.97
2024-03-07T06:35:18.937Z,1.93
2024-03-07T06:37:46.605Z,1.87
2024-03-07T06:40:15.927Z,2.00
2024-03-07T06:42:43.682Z,1.90
2024-03-07T06:45:13.440Z,1.93
2024-03-07T06:47:42.290Z,2.02
2024-03-07T06:50:23.524Z,1.92
2024-03-07T06:53:01.108Z,1.89
2024-03-07T06:55:30.268Z,2.13
2024-03-07T06:57:57.933Z,2.08
2024-03-07T07:00:27.433Z,2.10
2024-03-07T07:02:56.242Z,2.06
2024-03-07T07:05:24.667Z,2.12
2024-03-07T07:07:53.020Z,2.20
2024-03-07T07:10:25.715Z,2.18
2024-03-07T07:12:55.892Z,2.14
2024-03-07T07:15:24.037Z,2.26
2024-03-07T07:17:52.150Z,2.35
2024-03-07T07:20:20.548Z,2.61
2024-03-07T07:22:49.799Z,2.53
2024-03-07T07:25:17.778Z,2.80
2024-03-07T07:27:48.086Z,2.58
2024-03-07T07:30:17.631Z,2.70
2024-03-07T07:32:46.169Z,2.85
2024-03-07T07:35:14.508Z,2.91
2024-03-07T07:37:42.299Z,2.94
2024-03-07T07:40:14.123Z,2.88
2024-03-07T07:42:42.991Z,3.06
2024-03-07T07:45:13.146Z,3.17
2024-03-07T07:47:41.512Z,3.23
2024-03-07T07:50:13.946Z,3.20
2024-03-07T07:52:45.968Z,3.27
2024-03-07T07:55:16.242Z,3.26
2024-03-07T07:57:45.409Z,3.09
2024-03-07T08:00:22.560Z,3.20
2024-03-07T08:02:54.601Z,3.24
2024-03-07T08:05:24.427Z,3.24
2024-03-07T08:07:53.026Z,3.28
2024-03-07T08:10:21.582Z,3.38
2024-03-07T08:12:49.408Z,3.32
2024-03-07T08:15:18.687Z,3.29
2024-03-07T08:17:47.817Z,3.36
2024-03-07T08:20:17.154Z,3.39
2024-03-07T08:22:45.196Z,3.48
2024-03-07T08:25:13.479Z,3.43
2024-03-07T08:27:42.597Z,3.49
2024-03-07T08:30:14.036Z,3.35
2024-03-07T08:32:43.443Z,3.57
2024-03-07T08:35:12.605Z,3.64
2024-03-07T08:37:40.964Z,3.70
2024-03-07T08:40:11.054Z,3.82
2024-03-07T08:42:39.494Z,3.72
2024-03-07T08:45:07.931Z,3.78
2024-03-07T08:47:36.847Z,3.82
2024-03-07T08:50:09.602Z,3.87
2024-03-07T08:52:39.151Z,4.10
2024-03-07T08:55:07.508Z,4.36
2024-03-07T08:57:35.336Z,4.54
2024-03-07T09:00:09.301Z,4.75
2024-03-07T09:02:37.750Z,4.99
2024-03-07T09:05:08.441Z,5.17
2024-03-07T09:07:36.381Z,5.15
2024-03-07T09:10:05.224Z,5.37
2024-03-07T09:12:33.073Z,5.06
2024-03-07T09:15:00.918Z,4.94
2024-03-07T09:17:29.100Z,5.37
2024-03-07T09:19:56.830Z,5.24
2024-03-07T09:22:26.232Z,5.51
2024-03-07T09:24:54.003Z,5.36
2024-03-07T09:27:23.068Z,5.33
2024-03-07T09:29:51.051Z,5.47
2024-03-07T09:32:19.160Z,5.56
2024-03-07T09:34:47.508Z,5.62
2024-03-07T09:37:15.373Z,5.90
2024-03-07T09:39:44.725Z,5.69
2024-03-07T09:42:14.375Z,5.80
2024-03-07T09:44:44.025Z,5.73
2024-03-07T09:47:12.331Z,5.73
2024-03-07T09:49:40.201Z,5.70
2024-03-07T09:52:13.047Z,5.65
2024-03-07T09:54:41.406Z,6.00
2024-03-07T09:57:11.930Z,6.08
2024-03-07T09:59:41.448Z,6.22
2024-03-07T10:02:09.416Z,6.47
2024-03-07T10:04:42.055Z,6.65
2024-03-07T10:07:12.498Z,6.87
2024-03-07T10:09:41.587Z,6.75
2024-03-07T10:12:13.879Z,6.86
2024-03-07T10:14:50.541Z,6.41
2024-03-07T10:17:19.113Z,6.09
2024-03-07T10:19:49.116Z,6.57
2024-03-07T10:22:16.957Z,6.01
2024-03-07T10:24:51.813Z,6.06
2024-03-07T10:27:21.916Z,6.06
2024-03-07T10:29:50.571Z,6.23
2024-03-07T10:32:21.669Z,6.63
2024-03-07T10:34:49.582Z,6.91
2024-03-07T10:37:18.612Z,7.08
2024-03-07T10:39:46.815Z,7.25
2024-03-07T10:42:16.287Z,7.20
2024-03-07T10:44:47.219Z,7.12
2024-03-07T10:47:19.038Z,7.26
2024-03-07T10:49:56.302Z,7.74
2024-03-07T10:52:31.499Z,7.41
2024-03-07T10:55:13.793Z,7.32
2024-03-07T10:57:51.981Z,7.40
2024-03-07T11:00:37.206Z,7.08
2024-03-07T11:03:09.369Z,7.23
2024-03-07T11:05:37.226Z,7.21
2024-03-07T11:08:12.693Z,7.53
2024-03-07T11:10:41.450Z,7.62
2024-03-07T11:13:13.014Z,7.48
2024-03-07T11:15:45.228Z,7.26
2024-03-07T11:18:13.906Z,7.06
2024-03-07T11:20:44.373Z,6.95
2024-03-07T11:23:30.302Z,7.41
2024-03-07T11:26:08.393Z,7.49
2024-03-07T11:28:38.399Z,7.66
2024-03-07T11:31:11.600Z,7.66
2024-03-07T11:33:42.311Z,7.96
2024-03-07T11:36:13.145Z,7.73
2024-03-07T11:38:41.080Z,7.12
2024-03-07T11:41:09.621Z,7.27
2024-03-07T11:43:37.341Z,7.17
2024-03-07T11:46:12.560Z,7.35
2024-03-07T11:48:45.973Z,7.61
2024-03-07T11:51:22.605Z,7.76
2024-03-07T11:53:52.731Z,7.81
2024-03-07T11:56:20.548Z,7.98
2024-03-07T11:58:55.058Z,7.93
2024-03-07T12:01:26.647Z,7.89
2024-03-07T12:03:58.868Z,7.67
2024-03-07T12:06:32.853Z,8.09
2024-03-07T12:09:02.694Z,7.65
2024-03-07T12:11:32.198Z,7.90
2024-03-07T12:14:00.379Z,8.01
2024-03-07T12:16:30.684Z,8.18
2024-03-07T12:19:00.041Z,8.10
2024-03-07T12:21:28.814Z,8.26
2024-03-07T12:23:56.516Z,8.12
2024-03-07T12:26:26.675Z,8.35
2024-03-07T12:28:55.905Z,8.43
2024-03-07T12:31:25.872Z,8.37
2024-03-07T12:33:54.335Z,8.18
2024-03-07T12:36:27.988Z,8.06
2024-03-07T12:38:57.413Z,7.70
2024-03-07T12:41:25.352Z,7.66
2024-03-07T12:43:53.406Z,7.71
2024-03-07T12:46:21.088Z,7.53
2024-03-07T12:48:50.709Z,7.38
2024-03-07T12:51:20.576Z,7.55
2024-03-07T12:53:50.664Z,7.64
2024-03-07T12:56:20.888Z,7.51
2024-03-07T12:58:50.939Z,7.36
2024-03-07T13:01:20.177Z,7.38
2024-03-07T13:03:49.770Z,7.64
2024-03-07T13:06:20.562Z,7.70
2024-03-07T13:08:50.042Z,7.86
2024-03-07T13:11:18.149Z,7.90
2024-03-07T13:13:45.970Z,8.12
2024-03-07T13:16:13.665Z,8.21
2024-03-07T13:18:41.462Z,8.26
2024-03-07T13:21:12.421Z,8.27
2024-03-07T13:23:41.390Z,8.37
2024-03-07T13:26:17.770Z,8.31
2024-03-07T13:28:46.484Z,8.21
2024-03-07T13:31:14.123Z,8.34
2024-03-07T13:33:42.386Z,8.37
2024-03-07T13:36:10.293Z,8.33
2024-03-07T13:38:39.394Z,8.30
2024-03-07T13:41:07.268Z,8.45
2024-03-07T13:43:36.276Z,8.09
2024-03-07T13:46:05.036Z,8.17
2024-03-07T13:48:34.285Z,8.14
2024-03-07T13:51:08.902Z,8.08
2024-03-07T13:53:48.330Z,8.10
2024-03-07T13:56:36.538Z,8.06
2024-03-07T13:59:54.292Z,7.99
2024-03-07T14:02:44.211Z,8.05
2024-03-07T14:05:37.503Z,7.98
2024-03-07T14:08:25.618Z,8.20
2024-03-07T14:11:27.967Z,8.14
2024-03-07T14:14:12.444Z,8.33
2024-03-07T14:17:07.761Z,8.09
2024-03-07T14:19:58.831Z,8.26
2024-03-07T14:22:42.111Z,8.27
2024-03-07T14:25:24.768Z,8.25
2024-03-07T14:28:00.435Z,8.39
2024-03-07T14:30:41.765Z,8.50
2024-03-07T14:33:10.325Z,8.55
2024-03-07T14:36:05.150Z,8.38
2024-03-07T14:38:46.868Z,8.31
2024-03-07T14:41:16.282Z,8.40
2024-03-07T14:43:44.851Z,8.47
2024-03-07T14:46:13.953Z,8.43
2024-03-07T14:48:42.253Z,8.16
2024-03-07T14:51:14.791Z,8.19
2024-03-07T14:53:43.765Z,8.07
2024-03-07T14:56:12.423Z,8.08
2024-03-07T14:58:40.860Z,8.24
2024-03-07T15:01:09.107Z,8.23
2024-03-07T15:03:39.233Z,8.15
2024-03-07T15:06:09.789Z,8.27
2024-03-07T15:08:42.071Z,8.33
2024-03-07T15:11:14.917Z,8.30
2024-03-07T15:13:43.979Z,8.41
2024-03-07T15:16:25.215Z,8.50
2024-03-07T15:18:57.854Z,8.58
2024-03-07T15:21:25.563Z,8.44
2024-03-07T15:23:54.701Z,8.27
2024-03-07T15:26:25.205Z,8.45
2024-03-07T15:28:53.327Z,8.39
2024-03-07T15:31:21.586Z,8.36
2024-03-07T15:33:52.590Z,8.26
2024-03-07T15:36:22.649Z,8.26
2024-03-07T15:38:50.958Z,8.36
2024-03-07T15:41:20.868Z,8.28
2024-03-07T15:43:48.995Z,8.23
2024-03-07T15:46:19.388Z,8.21
2024-03-07T15:48:50.026Z,7.97
2024-03-07T15:51:18.478Z,7.97
2024-03-07T15:53:47.297Z,8.04
2024-03-07T15:56:16.836Z,8.01
2024-03-07T15:58:46.573Z,8.01
2024-03-07T16:01:17.371Z,7.91
2024-03-07T16:03:47.717Z,7.89
2024-03-07T16:06:17.503Z,7.93
2024-03-07T16:08:45.532Z,7.73
2024-03-07T16:11:14.341Z,7.67
2024-03-07T16:13:42.255Z,7.78
2024-03-07T16:16:11.822Z,7.89
2024-03-07T16:18:39.781Z,7.68
2024-03-07T16:21:08.731Z,7.70
2024-03-07T16:23:36.430Z,7.64
2024-03-07T16:26:06.545Z,7.54
2024-03-07T16:28:34.298Z,7.46
2024-03-07T16:31:02.809Z,7.43
2024-03-07T16:33:35.047Z,7.41
2024-03-07T16:36:02.901Z,7.34
2024-03-07T16:38:30.611Z,7.22
2024-03-07T16:40:58.622Z,7.21
2024-03-07T16:43:26.734Z,7.16
2024-03-07T16:45:55.758Z,7.30
2024-03-07T16:48:23.604Z,7.24
2024-03-07T16:50:55.458Z,7.17
2024-03-07T16:53:24.463Z,7.18
2024-03-07T16:55:52.187Z,7.16
2024-03-07T16:58:19.803Z,7.07
2024-03-07T17:00:47.454Z,7.13
2024-03-07T17:03:16.303Z,7.12
2024-03-07T17:05:45.840Z,7.09
2024-03-07T17:08:17.831Z,7.02
2024-03-07T17:10:47.159Z,6.97
2024-03-07T17:13:16.792Z,6.91
2024-03-07T17:15:45.764Z,6.90
2024-03-07T17:18:17.243Z,6.95
2024-03-07T17:20:46.781Z,6.94
2024-03-07T17:23:18.065Z,6.89
2024-03-07T17:25:45.936Z,6.93
2024-03-07T17:28:13.581Z,6.88
2024-03-07T17:30:42.233Z,6.75
2024-03-07T17:33:10.309Z,6.76
2024-03-07T17:35:42.023Z,7.07
2024-03-07T17:38:11.939Z,6.97
2024-03-07T17:40:42.004Z,6.92
2024-03-07T17:43:10.752Z,6.79
2024-03-07T17:45:39.118Z,6.82
2024-03-07T17:48:11.637Z,6.92
2024-03-07T17:50:39.692Z,6.94
2024-03-07T17:53:11.947Z,6.95
2024-03-07T17:55:44.955Z,6.82
2024-03-07T17:58:14.535Z,6.81
2024-03-07T18:00:44.078Z,6.84
2024-03-07T18:03:12.824Z,6.77
2024-03-07T18:05:44.295Z,6.73
2024-03-07T18:08:34.017Z,6.78
2024-03-07T18:11:11.450Z,6.81
2024-03-07T18:13:40.557Z,6.66
2024-03-07T18:16:09.773Z,6.76
2024-03-07T18:18:39.279Z,6.62
2024-03-07T18:21:09.783Z,6.60
2024-03-07T18:23:37.909Z,6.57
2024-03-07T18:26:07.178Z,6.60
2024-03-07T18:28:37.353Z,6.62
2024-03-07T18:31:09.921Z,6.60
2024-03-07T18:33:37.926Z,6.51
2024-03-07T18:36:07.165Z,6.58
2024-03-07T18:38:35.409Z,6.45
2024-03-07T18:41:06.947Z,6.58
2024-03-07T18:43:36.076Z,6.43
2024-03-07T18:46:04.366Z,6.50
2024-03-07T18:48:32.771Z,6.55
2024-03-07T18:51:00.682Z,6.50
2024-03-07T18:53:28.424Z,6.37
2024-03-07T18:55:57.814Z,6.46
2024-03-07T18:58:27.022Z,6.43
2024-03-07T19:00:58.487Z,6.46
2024-03-07T19:03:29.412Z,6.54
2024-03-07T19:05:57.675Z,6.38
2024-03-07T19:08:29.687Z,6.40
2024-03-07T19:10:59.384Z,6.40
2024-03-07T19:13:33.823Z,6.19
2024-03-07T19:16:03.985Z,6.23
2024-03-07T19:18:31.908Z,6.14
2024-03-07T19:20:59.757Z,6.30
2024-03-07T19:23:27.822Z,6.43
2024-03-07T19:25:56.033Z,6.31
2024-03-07T19:28:25.568Z,6.39
2024-03-07T19:30:53.540Z,6.15
2024-03-07T19:33:25.372Z,6.17
2024-03-07T19:35:56.874Z,6.35
2024-03-07T19:38:26.066Z,6.25
2024-03-07T19:40:54.375Z,6.21
2024-03-07T19:43:24.763Z,6.23
2024-03-07T19:45:53.627Z,6.19
2024-03-07T19:48:25.870Z,6.17
2024-03-07T19:50:55.436Z,6.18
2024-03-07T19:53:23.474Z,6.11
2024-03-07T19:55:51.251Z,6.04
2024-03-07T19:58:20.833Z,6.09
2024-03-07T20:00:50.555Z,6.11
2024-03-07T20:03:22.554Z,6.02
2024-03-07T20:05:52.984Z,6.13
2024-03-07T20:08:22.385Z,6.11
2024-03-07T20:10:51.826Z,6.01
2024-03-07T20:13:20.879Z,6.09
2024-03-07T20:15:49.140Z,5.98
2024-03-07T20:18:17.188Z,6.05
2024-03-07T20:20:47.168Z,6.15
2024-03-07T20:23:17.881Z,6.04
2024-03-07T20:25:47.504Z,6.01
2024-03-07T20:28:15.963Z,6.08
2024-03-07T20:30:54.052Z,6.04
2024-03-07T20:33:22.828Z,5.98
2024-03-07T20:35:52.387Z,5.95
2024-03-07T20:38:24.474Z,5.92
2024-03-07T20:40:53.214Z,5.93
2024-03-07T20:43:21.136Z,5.84
2024-03-07T20:45:49.116Z,5.81
2024-03-07T20:48:16.932Z,5.83
2024-03-07T20:50:44.799Z,5.79
2024-03-07T20:53:14.196Z,5.83
2024-03-07T20:55:43.559Z,5.64
2024-03-07T20:58:13.873Z,5.83
2024-03-07T21:00:47.046Z,5.65
2024-03-07T21:03:16.221Z,5.68
2024-03-07T21:05:45.454Z,5.69
2024-03-07T21:08:13.629Z,5.67
2024-03-07T21:10:42.354Z,5.67
2024-03-07T21:13:12.047Z,5.69
2024-03-07T21:15:39.910Z,5.71
2024-03-07T21:18:10.056Z,5.78
2024-03-07T21:20:38.488Z,5.72
2024-03-07T21:23:08.239Z,5.66
2024-03-07T21:25:36.776Z,5.70
2024-03-07T21:28:05.614Z,5.63
2024-03-07T21:30:34.775Z,5.66
2024-03-07T21:33:02.701Z,5.60
2024-03-07T21:35:32.072Z,5.67
2024-03-07T21:38:00.483Z,5.56
2024-03-07T21:40:28.410Z,5.60
2024-03-07T21:42:56.193Z,5.56
2024-03-07T21:45:23.976Z,5.45
2024-03-07T21:47:53.344Z,5.48
2024-03-07T21:50:21.247Z,5.42
2024-03-07T21:52:50.273Z,5.57
2024-03-07T21:55:21.055Z,5.50
2024-03-07T21:57:49.614Z,5.45
2024-03-07T22:00:19.584Z,5.39
2024-03-07T22:02:57.995Z,5.25
2024-03-07T22:05:31.560Z,5.33
2024-03-07T22:08:00.490Z,5.41
2024-03-07T22:10:30.635Z,5.34
2024-03-07T22:12:59.053Z,5.18
2024-03-07T22:15:27.482Z,5.30
2024-03-07T22:17:55.768Z,5.29
2024-03-07T22:20:25.544Z,5.13
2024-03-07T22:22:55.130Z,5.13
2024-03-07T22:25:23.881Z,5.13
2024-03-07T22:27:53.057Z,5.16
2024-03-07T22:30:24.261Z,5.09
2024-03-07T22:32:53.772Z,4.98
2024-03-07T22:35:22.678Z,4.98
2024-03-07T22:37:52.072Z,4.98
2024-03-07T22:40:24.931Z,4.98
2024-03-07T22:42:53.901Z,4.92
2024-03-07T22:45:22.001Z,4.87
2024-03-07T22:47:52.194Z,4.99
2024-03-07T22:50:27.803Z,4.96
2024-03-07T22:52:58.684Z,4.88
2024-03-07T22:55:27.836Z,4.86
2024-03-07T22:57:55.802Z,4.88
2024-03-07T23:00:28.219Z,4.76
2024-03-07T23:02:59.629Z,4.77
2024-03-07T23:05:28.776Z,4.77
2024-03-07T23:07:57.788Z,4.75
2024-03-07T23:10:26.984Z,4.80
2024-03-07T23:12:57.863Z,4.76
2024-03-07T23:15:27.984Z,4.70
2024-03-07T23:17:57.038Z,4.76
2024-03-07T23:20:26.957Z,4.84
2024-03-07T23:22:57.529Z,4.75
2024-03-07T23:25:27.878Z,4.66
2024-03-07T23:27:56.779Z,4.71
2024-03-07T23:30:27.555Z,4.69
2024-03-07T23:32:56.225Z,4.65
2024-03-07T23:35:24.813Z,4.69
2024-03-07T23:37:52.834Z,4.63
2024-03-07T23:40:21.297Z,4.56
2024-03-07T23:42:52.728Z,4.58
2024-03-07T23:45:22.240Z,4.57
2024-03-07T23:47:50.499Z,4.56
2024-03-07T23:50:18.665Z,4.39
2024-03-07T23:52:47.344Z,4.49
2024-03-07T23:55:19.523Z,4.29
2024-03-07T23:57:47.672Z,4.36
